createdAt,value
2022-11-25T00:00:03.393Z,45.12
2022-11-25T00:01:03.436Z,43.67
2022-11-25T00:02:03.448Z,43.34
2022-11-25T00:03:03.470Z,44.47
2022-11-25T00:04:03.367Z,43.51
2022-11-25T00:05:03.432Z,42.70
2022-11-25T00:06:03.348Z,45.12
2022-11-25T00:07:03.334Z,45.44
2022-11-25T00:08:03.369Z,44.96
2022-11-25T00:09:03.379Z,44.79
2022-11-25T00:10:03.325Z,45.76
2022-11-25T00:11:03.297Z,45.60
2022-11-25T00:12:03.329Z,43.18
2022-11-25T00:13:03.304Z,43.18
2022-11-25T00:14:03.450Z,43.18
2022-11-25T00:15:03.276Z,42.86
2022-11-25T00:16:04.125Z,42.06
2022-11-25T00:17:03.347Z,41.73
2022-11-25T00:18:03.271Z,41.41
2022-11-25T00:19:04.263Z,42.38
2022-11-25T00:20:03.196Z,41.73
2022-11-25T00:21:03.188Z,41.57
2022-11-25T00:22:03.291Z,42.54
2022-11-25T00:23:35.058Z,42.54
2022-11-25T00:24:03.260Z,44.63
2022-11-25T00:25:03.203Z,42.54
2022-11-25T00:26:03.165Z,42.70
2022-11-25T00:27:03.127Z,42.70
2022-11-25T00:28:03.147Z,42.70
2022-11-25T00:29:03.129Z,43.02
2022-11-25T00:30:03.097Z,43.02
2022-11-25T00:31:03.097Z,44.47
2022-11-25T00:32:03.201Z,44.31
2022-11-25T00:33:03.096Z,42.06
2022-11-25T00:34:03.107Z,42.38
2022-11-25T00:35:03.055Z,42.38
2022-11-25T00:36:03.166Z,42.70
2022-11-25T00:37:03.081Z,42.54
2022-11-25T00:38:03.034Z,42.70
2022-11-25T00:39:03.013Z,42.54
2022-11-25T00:40:03.036Z,42.70
2022-11-25T00:41:03.048Z,46.25
2022-11-25T00:42:03.069Z,44.47
2022-11-25T00:43:03.021Z,44.79
2022-11-25T00:44:02.996Z,43.83
2022-11-25T00:45:03.024Z,42.70
2022-11-25T00:46:03.085Z,43.02
2022-11-25T00:47:02.984Z,43.34
2022-11-25T00:48:02.955Z,42.22
2022-11-25T00:49:02.941Z,41.89
2022-11-25T00:50:03.084Z,42.38
2022-11-25T00:51:02.956Z,42.06
2022-11-25T00:52:02.995Z,42.86
2022-11-25T00:53:02.962Z,42.22
2022-11-25T00:54:02.918Z,42.22
2022-11-25T00:55:02.912Z,42.22
2022-11-25T00:56:02.913Z,42.06
2022-11-25T00:57:02.890Z,43.18
2022-11-25T00:58:02.895Z,41.73
2022-11-25T00:59:02.894Z,41.89
2022-11-25T01:00:02.897Z,41.41
2022-11-25T01:01:02.962Z,41.57
2022-11-25T01:02:02.951Z,42.22
2022-11-25T01:03:34.763Z,43.18
2022-11-25T01:04:02.857Z,42.38
2022-11-25T01:05:03.893Z,42.06
2022-11-25T01:06:02.816Z,42.38
2022-11-25T01:07:02.795Z,42.86
2022-11-25T01:08:02.791Z,42.54
2022-11-25T01:09:02.910Z,42.86
2022-11-25T01:10:02.809Z,44.96
2022-11-25T01:11:02.817Z,44.47
2022-11-25T01:12:02.777Z,44.15
2022-11-25T01:13:02.759Z,44.15
2022-11-25T01:14:02.766Z,42.86
2022-11-25T01:15:02.763Z,43.67
2022-11-25T01:16:02.814Z,43.02
2022-11-25T01:17:02.737Z,43.83
2022-11-25T01:18:02.746Z,44.15
2022-11-25T01:19:02.792Z,42.38
2022-11-25T01:20:02.728Z,42.86
2022-11-25T01:21:02.727Z,41.73
2022-11-25T01:22:02.723Z,42.70
2022-11-25T01:23:02.698Z,42.54
2022-11-25T01:24:02.772Z,42.22
2022-11-25T01:25:02.699Z,41.89
2022-11-25T01:26:02.651Z,42.06
2022-11-25T01:27:02.668Z,43.51
2022-11-25T01:28:02.669Z,44.63
2022-11-25T01:29:02.640Z,44.15
2022-11-25T01:30:02.634Z,42.06
2022-11-25T01:31:02.611Z,42.38
2022-11-25T01:32:02.720Z,42.54
2022-11-25T01:33:02.602Z,41.73
2022-11-25T01:34:02.613Z,42.06
2022-11-25T01:35:02.592Z,42.22
2022-11-25T01:36:02.579Z,41.73
2022-11-25T01:37:02.589Z,42.06
2022-11-25T01:38:02.585Z,42.06
2022-11-25T01:39:02.603Z,42.06
2022-11-25T01:40:02.563Z,42.22
2022-11-25T01:41:02.554Z,44.15
2022-11-25T01:42:02.585Z,44.47
2022-11-25T01:43:02.560Z,44.47
2022-11-25T01:44:02.526Z,44.31
2022-11-25T01:45:02.546Z,43.99
2022-11-25T01:46:02.560Z,42.54
2022-11-25T01:47:02.496Z,42.38
2022-11-25T01:48:02.508Z,41.57
2022-11-25T01:49:02.495Z,42.38
2022-11-25T01:50:02.579Z,41.73
2022-11-25T01:51:02.465Z,42.06
2022-11-25T01:52:02.468Z,42.22
2022-11-25T01:53:02.473Z,41.89
2022-11-25T01:54:02.440Z,44.79
2022-11-25T01:55:02.435Z,42.86
2022-11-25T01:56:02.451Z,41.89
2022-11-25T01:57:02.501Z,42.38
2022-11-25T01:58:02.429Z,43.83
2022-11-25T01:59:02.458Z,44.15
2022-11-25T02:00:02.427Z,41.41
2022-11-25T02:01:02.418Z,43.18
2022-11-25T02:02:02.439Z,43.51
2022-11-25T02:03:02.386Z,42.70
2022-11-25T02:04:02.359Z,43.02
2022-11-25T02:05:02.384Z,43.34
2022-11-25T02:06:02.359Z,43.51
2022-11-25T02:07:02.330Z,41.89
2022-11-25T02:08:02.331Z,43.18
2022-11-25T02:09:02.360Z,41.89
2022-11-25T02:10:02.367Z,43.18
2022-11-25T02:11:02.337Z,42.22
2022-11-25T02:12:02.323Z,44.15
2022-11-25T02:13:02.282Z,44.15
2022-11-25T02:14:03.212Z,44.15
2022-11-25T02:15:02.270Z,43.99
2022-11-25T02:16:02.345Z,42.86
2022-11-25T02:17:02.364Z,42.54
2022-11-25T02:18:02.257Z,43.67
2022-11-25T02:19:02.280Z,43.18
2022-11-25T02:20:02.259Z,42.22
2022-11-25T02:21:02.262Z,42.22
2022-11-25T02:22:02.231Z,42.86
2022-11-25T02:23:02.239Z,42.38
2022-11-25T02:24:02.212Z,42.70
2022-11-25T02:25:02.199Z,41.73
2022-11-25T02:26:02.188Z,42.06
2022-11-25T02:27:02.214Z,41.73
2022-11-25T02:28:02.204Z,42.38
2022-11-25T02:29:02.168Z,42.06
2022-11-25T02:30:02.184Z,42.22
2022-11-25T02:31:02.183Z,42.22
2022-11-25T02:32:02.216Z,42.54
2022-11-25T02:33:02.139Z,41.73
2022-11-25T02:34:02.145Z,41.89
2022-11-25T02:35:02.116Z,42.38
2022-11-25T02:36:02.166Z,42.54
2022-11-25T02:37:02.111Z,43.02
2022-11-25T02:38:34.044Z,43.02
2022-11-25T02:39:02.105Z,45.28
2022-11-25T02:40:02.127Z,42.86
2022-11-25T02:41:02.070Z,42.22
2022-11-25T02:42:02.084Z,42.54
2022-11-25T02:43:02.066Z,43.83
2022-11-25T02:44:02.094Z,43.67
2022-11-25T02:45:02.076Z,43.18
2022-11-25T02:46:02.154Z,43.67
2022-11-25T02:47:02.060Z,43.34
2022-11-25T02:48:02.021Z,43.83
2022-11-25T02:49:10.226Z,41.73
2022-11-25T02:50:04.003Z,43.51
2022-11-25T02:51:02.023Z,42.06
2022-11-25T02:52:02.022Z,41.73
2022-11-25T02:53:01.994Z,41.73
2022-11-25T02:54:01.989Z,42.38
2022-11-25T02:55:02.003Z,42.38
2022-11-25T02:56:01.984Z,42.54
2022-11-25T02:57:01.939Z,42.54
2022-11-25T02:58:01.935Z,42.06
2022-11-25T02:59:01.955Z,43.34
2022-11-25T03:00:01.964Z,48.18
2022-11-25T03:01:01.972Z,44.15
2022-11-25T03:02:01.947Z,42.70
2022-11-25T03:03:01.914Z,42.70
2022-11-25T03:04:01.911Z,42.38
2022-11-25T03:05:01.942Z,42.06
2022-11-25T03:06:01.875Z,42.06
2022-11-25T03:07:01.914Z,42.38
2022-11-25T03:08:01.865Z,41.89
2022-11-25T03:09:01.885Z,42.06
2022-11-25T03:10:01.878Z,41.89
2022-11-25T03:11:01.839Z,42.06
2022-11-25T03:12:01.829Z,44.96
2022-11-25T03:13:01.831Z,42.38
2022-11-25T03:14:01.843Z,43.02
2022-11-25T03:15:01.805Z,44.63
2022-11-25T03:16:01.821Z,44.47
2022-11-25T03:17:01.836Z,50.60
2022-11-25T03:18:01.776Z,43.51
2022-11-25T03:19:01.765Z,43.67
2022-11-25T03:20:01.786Z,42.54
2022-11-25T03:21:01.763Z,42.70
2022-11-25T03:22:01.767Z,43.51
2022-11-25T03:23:01.818Z,42.54
2022-11-25T03:24:01.738Z,42.70
2022-11-25T03:25:01.757Z,42.70
2022-11-25T03:26:01.711Z,42.86
2022-11-25T03:27:01.731Z,43.02
2022-11-25T03:28:01.709Z,44.15
2022-11-25T03:29:01.711Z,43.51
2022-11-25T03:30:01.777Z,42.86
2022-11-25T03:31:01.678Z,43.02
2022-11-25T03:32:04.275Z,43.99
2022-11-25T03:33:03.674Z,43.34
2022-11-25T03:34:01.677Z,43.51
2022-11-25T03:35:01.675Z,43.67
2022-11-25T03:36:01.639Z,43.18
2022-11-25T03:37:01.686Z,42.06
2022-11-25T03:38:01.639Z,42.38
2022-11-25T03:39:01.651Z,43.02
2022-11-25T03:40:01.619Z,45.76
2022-11-25T03:41:01.615Z,45.60
2022-11-25T03:42:01.618Z,46.89
2022-11-25T03:43:01.636Z,45.12
2022-11-25T03:44:01.583Z,43.67
2022-11-25T03:45:01.586Z,43.34
2022-11-25T03:46:01.737Z,45.92
2022-11-25T03:47:01.578Z,45.92
2022-11-25T04:04:10.748Z,42.22
2022-11-25T04:05:11.908Z,45.12
2022-11-25T04:06:43.766Z,44.96
2022-11-25T04:07:11.891Z,45.44
2022-11-25T04:08:44.817Z,44.79
2022-11-25T04:09:11.844Z,49.31
2022-11-25T04:10:11.831Z,46.89
2022-11-25T04:11:11.824Z,46.08
2022-11-25T04:12:11.814Z,45.76
2022-11-25T04:13:11.847Z,46.25
2022-11-25T04:14:11.813Z,46.89
2022-11-25T04:15:11.801Z,45.60
2022-11-25T04:16:11.809Z,45.60
2022-11-25T04:17:11.876Z,47.21
2022-11-25T04:18:11.804Z,47.53
2022-11-25T04:19:11.800Z,50.11
2022-11-25T04:20:11.772Z,48.82
2022-11-25T04:21:11.756Z,47.21
2022-11-25T04:22:11.760Z,47.70
2022-11-25T04:23:11.746Z,44.96
2022-11-25T04:24:11.757Z,45.76
2022-11-25T04:25:11.746Z,49.95
2022-11-25T04:26:11.723Z,47.05
2022-11-25T04:27:11.698Z,47.37
2022-11-25T04:28:12.398Z,46.73
2022-11-25T04:29:11.691Z,53.50
2022-11-25T04:30:11.695Z,49.15
2022-11-25T04:31:11.782Z,47.70
2022-11-25T04:32:11.655Z,45.76
2022-11-25T04:33:11.669Z,47.86
2022-11-25T04:34:11.644Z,47.37
2022-11-25T04:35:11.632Z,51.40
2022-11-25T04:36:11.651Z,50.27
2022-11-25T04:37:11.626Z,53.50
2022-11-25T04:38:11.721Z,51.88
2022-11-25T04:39:11.658Z,49.15
2022-11-25T04:40:11.603Z,55.75
2022-11-25T04:41:11.636Z,51.40
2022-11-25T04:42:11.619Z,49.63
2022-11-25T04:43:11.595Z,55.91
2022-11-25T04:44:11.601Z,52.53
2022-11-25T04:45:22.964Z,50.27
2022-11-25T04:46:14.592Z,48.34
2022-11-25T04:47:12.646Z,54.79
2022-11-25T04:48:11.695Z,52.53
2022-11-25T04:49:11.542Z,47.53
2022-11-25T04:50:11.551Z,49.95
2022-11-25T04:51:11.557Z,50.11
2022-11-25T04:52:11.514Z,48.82
2022-11-25T04:53:11.509Z,48.82
2022-11-25T04:54:17.183Z,47.53
2022-11-25T04:55:13.510Z,48.98
2022-11-25T04:56:11.518Z,57.52
2022-11-25T04:57:11.470Z,46.89
2022-11-25T04:58:11.659Z,46.25
2022-11-25T04:59:11.463Z,48.02
2022-11-25T05:00:11.438Z,48.66
2022-11-25T05:01:11.527Z,52.85
2022-11-25T05:02:11.546Z,49.47
2022-11-25T05:03:11.424Z,46.41
2022-11-25T05:04:11.415Z,52.05
2022-11-25T05:05:11.437Z,50.76
2022-11-25T05:06:11.415Z,46.73
2022-11-25T05:07:11.432Z,52.53
2022-11-25T05:08:11.526Z,51.40
2022-11-25T05:09:11.375Z,48.98
2022-11-25T05:10:11.414Z,48.02
2022-11-25T05:11:11.362Z,59.46
2022-11-25T05:12:11.346Z,53.01
2022-11-25T05:13:11.414Z,49.63
2022-11-25T05:14:11.369Z,47.21
2022-11-25T05:15:11.325Z,57.20
2022-11-25T05:16:11.428Z,51.40
2022-11-25T05:17:11.342Z,48.02
2022-11-25T05:18:11.600Z,57.85
2022-11-25T05:19:11.381Z,47.21
2022-11-25T05:20:11.304Z,53.01
2022-11-25T05:21:11.287Z,56.72
2022-11-25T05:22:11.301Z,48.50
2022-11-25T05:23:11.291Z,54.79
2022-11-25T05:24:11.280Z,53.33
2022-11-25T05:25:11.365Z,49.79
2022-11-25T05:26:11.256Z,49.63
2022-11-25T05:27:11.279Z,50.60
2022-11-25T05:28:11.239Z,50.27
2022-11-25T05:29:11.216Z,56.07
2022-11-25T05:30:11.215Z,49.47
2022-11-25T05:31:11.295Z,50.27
2022-11-25T05:32:11.262Z,49.95
2022-11-25T05:33:11.216Z,49.47
2022-11-25T05:34:11.204Z,56.40
2022-11-25T05:35:11.187Z,57.20
2022-11-25T05:36:11.208Z,56.88
2022-11-25T05:37:11.156Z,63.65
2022-11-25T05:38:11.178Z,58.17
2022-11-25T05:39:11.169Z,57.04
2022-11-25T05:40:11.141Z,60.75
2022-11-25T05:41:11.197Z,53.17
2022-11-25T05:42:11.131Z,51.40
2022-11-25T05:43:11.121Z,62.04
2022-11-25T05:44:11.123Z,49.63
2022-11-25T05:45:11.162Z,58.81
2022-11-25T05:46:11.149Z,56.07
2022-11-25T05:47:11.111Z,57.20
2022-11-25T05:48:11.083Z,54.46
2022-11-25T05:49:11.084Z,50.76
2022-11-25T05:50:11.113Z,58.17
2022-11-25T05:51:11.990Z,65.42
2022-11-25T05:52:43.013Z,60.42
2022-11-25T05:53:42.944Z,58.65
2022-11-25T05:54:43.059Z,53.01
2022-11-25T05:55:43.027Z,59.30
2022-11-25T05:56:43.073Z,53.33
2022-11-25T05:57:42.977Z,56.72
2022-11-25T05:58:11.122Z,61.55
2022-11-25T06:02:26.701Z,56.72
2022-11-25T06:03:26.618Z,65.26
2022-11-25T06:04:52.651Z,60.75
2022-11-25T06:05:52.595Z,50.43
2022-11-25T06:06:52.618Z,53.01
2022-11-25T06:07:52.675Z,57.04
2022-11-25T06:08:20.664Z,61.23
2022-11-25T06:09:52.609Z,56.24
2022-11-25T06:10:20.643Z,61.07
2022-11-25T06:11:20.713Z,57.36
2022-11-25T06:12:20.633Z,49.63
2022-11-25T06:13:20.695Z,58.49
2022-11-25T06:14:20.614Z,68.96
2022-11-25T06:15:20.631Z,52.85
2022-11-25T06:16:20.626Z,57.04
2022-11-25T06:17:20.611Z,61.55
2022-11-25T06:18:20.626Z,57.20
2022-11-25T06:19:20.607Z,60.75
2022-11-25T06:20:20.566Z,61.07
2022-11-25T06:21:20.571Z,54.30
2022-11-25T06:22:20.561Z,57.04
2022-11-25T06:23:20.557Z,61.23
2022-11-25T06:24:20.549Z,60.59
2022-11-25T06:25:20.591Z,70.25
2022-11-25T06:26:20.516Z,64.78
2022-11-25T06:27:20.527Z,60.10
2022-11-25T06:28:20.505Z,62.84
2022-11-25T06:29:20.527Z,63.65
2022-11-25T06:30:20.594Z,64.61
2022-11-25T06:31:20.553Z,67.84
2022-11-25T06:32:20.493Z,60.42
2022-11-25T06:33:20.480Z,58.49
2022-11-25T06:34:20.471Z,70.25
2022-11-25T06:35:20.478Z,67.68
2022-11-25T06:36:20.474Z,63.97
2022-11-25T06:37:20.448Z,63.16
2022-11-25T06:38:20.434Z,58.01
2022-11-25T06:39:20.437Z,64.45
2022-11-25T06:40:20.471Z,61.07
2022-11-25T06:41:20.476Z,57.85
2022-11-25T06:42:20.507Z,57.52
2022-11-25T06:43:20.391Z,60.59
2022-11-25T06:44:20.446Z,54.95
2022-11-25T06:45:20.402Z,65.74
2022-11-25T06:46:24.767Z,53.82
2022-11-25T06:47:21.420Z,63.81
2022-11-25T06:48:20.411Z,55.91
2022-11-25T06:49:20.437Z,67.51
2022-11-25T06:50:20.409Z,68.80
2022-11-25T06:51:20.347Z,61.71
2022-11-25T06:52:20.500Z,67.51
2022-11-25T06:53:24.076Z,60.59
2022-11-25T06:54:21.348Z,59.94
2022-11-25T06:55:20.307Z,54.30
2022-11-25T06:56:20.339Z,63.33
2022-11-25T06:57:20.296Z,53.33
2022-11-25T06:58:35.436Z,60.91
2022-11-25T06:59:22.278Z,52.69
2022-11-25T07:00:20.267Z,58.49
2022-11-25T07:01:20.295Z,53.50
2022-11-25T07:02:20.320Z,52.37
2022-11-25T07:03:20.344Z,62.68
2022-11-25T07:04:20.277Z,60.26
2022-11-25T07:05:20.917Z,63.97
2022-11-25T07:06:20.260Z,50.43
2022-11-25T07:07:20.251Z,55.43
2022-11-25T07:08:20.217Z,51.24
2022-11-25T07:09:20.235Z,63.81
2022-11-25T07:10:20.230Z,56.56
2022-11-25T07:11:20.208Z,55.27
2022-11-25T07:12:20.197Z,59.14
2022-11-25T07:13:20.191Z,53.50
2022-11-25T07:14:20.167Z,54.30
2022-11-25T07:15:20.206Z,64.45
2022-11-25T07:16:20.236Z,54.30
2022-11-25T07:17:20.197Z,57.20
2022-11-25T07:18:20.212Z,62.36
2022-11-25T07:19:20.136Z,54.46
2022-11-25T07:20:20.143Z,52.05
2022-11-25T07:21:20.124Z,51.56
2022-11-25T07:22:20.115Z,53.01
2022-11-25T07:23:20.099Z,56.07
2022-11-25T07:24:20.083Z,62.20
2022-11-25T07:25:20.223Z,60.26
2022-11-25T07:26:20.091Z,51.08
2022-11-25T07:27:20.118Z,53.01
2022-11-25T07:28:20.065Z,53.50
2022-11-25T07:31:23.708Z,63.97
2022-11-25T07:32:22.569Z,59.94
2022-11-25T07:33:20.187Z,58.01
2022-11-25T07:34:20.181Z,60.42
2022-11-25T07:35:21.010Z,50.27
2022-11-25T07:36:20.061Z,54.14
2022-11-25T07:37:20.001Z,60.42
2022-11-25T07:38:19.996Z,57.04
2022-11-25T07:39:20.028Z,54.79
2022-11-25T07:40:19.971Z,62.68
2022-11-25T07:41:19.962Z,57.52
2022-11-25T07:42:19.966Z,48.18
2022-11-25T07:43:19.944Z,52.53
2022-11-25T07:44:19.972Z,55.27
2022-11-25T07:45:19.948Z,50.43
2022-11-25T07:46:26.276Z,55.27
2022-11-25T07:47:21.931Z,61.39
2022-11-25T07:48:20.922Z,60.75
2022-11-25T07:49:19.891Z,67.35
2022-11-25T07:50:19.887Z,53.82
2022-11-25T07:51:19.900Z,58.65
2022-11-25T07:52:19.905Z,58.17
2022-11-25T07:53:19.915Z,58.81
2022-11-25T07:54:19.866Z,52.37
2022-11-25T07:55:19.868Z,52.53
2022-11-25T07:56:19.851Z,58.01
2022-11-25T07:57:19.839Z,55.91
2022-11-25T07:58:19.852Z,55.27
2022-11-25T07:59:19.856Z,58.17
2022-11-25T08:00:19.838Z,52.37
2022-11-25T08:01:19.938Z,51.08
2022-11-25T08:02:19.856Z,47.53
2022-11-25T08:03:19.979Z,54.46
2022-11-25T08:04:21.023Z,52.21
2022-11-25T08:05:20.791Z,60.75
2022-11-25T08:06:19.822Z,63.00
2022-11-25T08:07:19.819Z,53.98
2022-11-25T08:08:19.772Z,57.36
2022-11-25T08:09:19.758Z,49.47
2022-11-25T08:10:19.755Z,60.10
2022-11-25T08:11:19.777Z,63.97
2022-11-25T08:12:19.767Z,51.72
2022-11-25T08:13:19.824Z,49.31
2022-11-25T08:14:19.731Z,54.95
2022-11-25T08:15:19.727Z,54.14
2022-11-25T08:16:19.761Z,59.30
2022-11-25T08:17:19.719Z,52.53
2022-11-25T08:18:19.697Z,59.62
2022-11-25T08:19:19.709Z,48.98
2022-11-25T08:20:19.688Z,51.72
2022-11-25T08:21:19.677Z,51.72
2022-11-25T08:22:19.701Z,52.21
2022-11-25T08:23:19.661Z,58.33
2022-11-25T08:24:19.696Z,49.95
2022-11-25T08:25:19.636Z,52.05
2022-11-25T08:26:19.650Z,55.91
2022-11-25T08:27:19.648Z,48.50
2022-11-25T08:28:19.615Z,63.97
2022-11-25T08:29:19.632Z,60.42
2022-11-25T08:30:19.622Z,61.39
2022-11-25T08:31:51.531Z,56.40
2022-11-25T08:32:19.592Z,46.73
2022-11-25T08:33:19.578Z,63.97
2022-11-25T08:34:19.575Z,58.17
2022-11-25T08:35:20.535Z,55.11
2022-11-25T08:36:19.577Z,60.42
2022-11-25T08:37:19.598Z,63.00
2022-11-25T08:38:20.389Z,61.23
2022-11-25T08:40:21.632Z,64.13
2022-11-25T08:41:19.528Z,59.62
2022-11-25T08:42:19.542Z,53.50
2022-11-25T08:43:22.789Z,59.30
2022-11-25T08:44:20.499Z,54.62
2022-11-25T08:45:19.518Z,52.53
2022-11-25T08:46:19.530Z,60.26
2022-11-25T08:47:19.483Z,63.33
2022-11-25T08:48:19.579Z,70.90
2022-11-25T08:49:20.026Z,63.97
2022-11-25T08:50:19.483Z,67.68
2022-11-25T08:51:20.034Z,54.95
2022-11-25T08:52:19.506Z,58.33
2022-11-25T08:53:19.462Z,61.87
2022-11-25T08:54:19.449Z,47.05
2022-11-25T08:55:19.451Z,57.20
2022-11-25T08:56:24.338Z,53.17
2022-11-25T08:57:21.442Z,57.69
2022-11-25T08:58:19.451Z,62.20
2022-11-25T08:59:19.378Z,53.33
2022-11-25T09:00:19.406Z,61.71
2022-11-25T09:01:20.440Z,50.11
2022-11-25T09:02:19.492Z,53.17
2022-11-25T09:03:19.412Z,58.97
2022-11-25T09:04:19.388Z,55.59
2022-11-25T09:05:19.378Z,55.43
2022-11-25T09:06:19.374Z,52.21
2022-11-25T09:07:19.381Z,58.33
2022-11-25T09:08:19.303Z,60.59
2022-11-25T09:09:19.296Z,50.11
2022-11-25T09:10:19.291Z,61.23
2022-11-25T09:11:19.338Z,58.49
2022-11-25T09:12:19.341Z,58.01
2022-11-25T09:13:19.365Z,54.46
2022-11-25T09:14:19.306Z,54.46
2022-11-25T09:15:19.258Z,60.75
2022-11-25T09:16:19.423Z,53.33
2022-11-25T09:17:19.292Z,48.18
2022-11-25T09:18:19.254Z,47.70
2022-11-25T09:19:19.269Z,55.11
2022-11-25T09:20:19.245Z,48.98
2022-11-25T09:21:19.245Z,63.97
2022-11-25T09:22:19.223Z,48.34
2022-11-25T09:23:19.218Z,68.00
2022-11-25T09:24:19.195Z,54.30
2022-11-25T09:25:19.233Z,49.15
2022-11-25T09:26:19.182Z,56.07
2022-11-25T09:27:19.219Z,52.69
2022-11-25T09:28:19.182Z,59.78
2022-11-25T09:29:19.160Z,59.94
2022-11-25T09:30:19.174Z,54.30
2022-11-25T09:31:19.206Z,63.49
2022-11-25T09:32:20.029Z,58.17
2022-11-25T09:33:19.169Z,50.11
2022-11-25T09:34:19.184Z,53.66
2022-11-25T09:35:19.100Z,61.23
2022-11-25T09:36:19.138Z,57.20
2022-11-25T09:37:19.122Z,49.31
2022-11-25T09:38:19.085Z,53.50
2022-11-25T09:39:19.093Z,52.53
2022-11-25T09:40:19.071Z,56.07
2022-11-25T09:41:19.069Z,55.27
2022-11-25T09:42:19.118Z,65.10
2022-11-25T09:43:19.043Z,55.27
2022-11-25T09:44:19.065Z,52.05
2022-11-25T09:45:19.027Z,54.62
2022-11-25T09:46:20.087Z,57.69
2022-11-25T09:47:19.011Z,64.29
2022-11-25T09:48:19.033Z,49.95
2022-11-25T09:49:19.034Z,65.58
2022-11-25T09:50:18.993Z,54.14
2022-11-25T09:51:19.006Z,51.40
2022-11-25T09:52:18.981Z,64.45
2022-11-25T09:53:18.997Z,53.50
2022-11-25T09:54:18.993Z,49.79
2022-11-25T09:55:18.977Z,52.53
2022-11-25T09:56:19.031Z,57.04
2022-11-25T09:57:18.947Z,58.81
2022-11-25T09:58:18.944Z,63.16
2022-11-25T09:59:18.949Z,48.66
2022-11-25T10:00:18.943Z,59.14
2022-11-25T10:01:19.608Z,58.81
2022-11-25T10:02:19.026Z,51.08
2022-11-25T10:03:19.023Z,62.20
2022-11-25T10:04:18.884Z,50.60
2022-11-25T10:05:18.878Z,51.24
2022-11-25T10:06:18.974Z,51.40
2022-11-25T10:07:18.907Z,67.51
2022-11-25T10:08:19.650Z,60.75
2022-11-25T10:09:18.860Z,54.14
2022-11-25T10:10:18.963Z,59.94
2022-11-25T10:11:18.840Z,61.55
2022-11-25T10:12:18.879Z,50.92
2022-11-25T10:13:19.779Z,66.71
2022-11-25T10:14:18.835Z,61.87
2022-11-25T10:15:18.794Z,59.62
2022-11-25T10:16:18.839Z,49.79
2022-11-25T10:17:18.800Z,55.11
2022-11-25T10:18:18.782Z,61.71
2022-11-25T10:19:18.768Z,58.33
2022-11-25T10:20:18.814Z,58.01
2022-11-25T10:21:18.749Z,56.56
2022-11-25T10:22:18.769Z,50.11
2022-11-25T10:23:22.261Z,49.47
2022-11-25T10:24:19.736Z,59.78
2022-11-25T10:25:18.711Z,57.04
2022-11-25T10:26:18.749Z,50.92
2022-11-25T10:27:18.739Z,58.33
2022-11-25T10:28:18.696Z,60.75
2022-11-25T10:29:18.704Z,60.42
2022-11-25T10:30:18.937Z,62.20
2022-11-25T10:31:18.777Z,63.33
2022-11-25T10:32:18.655Z,60.10
2022-11-25T10:33:18.658Z,59.46
2022-11-25T10:34:18.654Z,65.58
2022-11-25T10:35:18.652Z,51.08
2022-11-25T10:36:18.665Z,56.07
2022-11-25T10:37:18.619Z,69.29
2022-11-25T10:38:19.303Z,58.97
2022-11-25T10:39:19.811Z,61.23
2022-11-25T10:40:18.676Z,54.62
2022-11-25T10:41:18.591Z,51.24
2022-11-25T10:42:18.630Z,54.46
2022-11-25T10:43:18.594Z,63.16
2022-11-25T10:44:18.697Z,59.30
2022-11-25T10:45:18.591Z,53.66
2022-11-25T10:46:18.640Z,59.46
2022-11-25T10:47:18.638Z,63.16
2022-11-25T10:48:18.558Z,65.74
2022-11-25T10:49:18.579Z,58.65
2022-11-25T10:50:18.579Z,63.65
2022-11-25T10:51:18.550Z,60.26
2022-11-25T10:52:18.531Z,62.04
2022-11-25T10:53:18.534Z,56.88
2022-11-25T10:54:22.692Z,70.90
2022-11-25T10:55:19.562Z,56.56
2022-11-25T10:56:18.592Z,49.95
2022-11-25T10:57:19.509Z,59.14
2022-11-25T10:58:18.507Z,59.46
2022-11-25T10:59:18.494Z,58.17
2022-11-25T11:00:18.477Z,58.01
2022-11-25T11:01:18.535Z,53.50
2022-11-25T11:02:18.541Z,62.36
2022-11-25T11:03:18.467Z,48.18
2022-11-25T11:04:18.446Z,66.06
2022-11-25T11:05:18.487Z,56.07
2022-11-25T11:06:18.463Z,55.11
2022-11-25T11:07:18.501Z,64.78
2022-11-25T11:08:18.448Z,70.42
2022-11-25T11:11:04.959Z,70.42
2022-11-25T11:12:04.953Z,55.91
2022-11-25T11:13:06.143Z,57.20
2022-11-25T11:14:06.747Z,61.39
2022-11-25T11:15:06.051Z,67.03
2022-11-25T11:16:06.100Z,67.03
2022-11-25T11:17:06.056Z,63.49
2022-11-25T11:18:06.045Z,60.75
2022-11-25T11:19:06.022Z,58.49
2022-11-25T11:20:06.031Z,55.11
2022-11-25T11:21:06.042Z,54.14
2022-11-25T11:22:05.990Z,55.43
2022-11-25T11:23:09.127Z,60.91
2022-11-25T11:24:06.998Z,57.85
2022-11-25T11:25:05.993Z,62.36
2022-11-25T11:26:06.065Z,62.52
2022-11-25T11:27:05.972Z,64.78
2022-11-25T11:28:06.004Z,62.68
2022-11-25T11:29:09.820Z,68.00
2022-11-25T11:30:07.970Z,66.06
2022-11-25T11:31:06.021Z,66.23
2022-11-25T11:32:05.952Z,60.75
2022-11-25T11:33:05.921Z,65.10
2022-11-25T11:34:05.920Z,53.50
2022-11-25T11:35:05.949Z,58.97
2022-11-25T11:36:05.883Z,61.07
2022-11-25T11:37:05.897Z,62.04
2022-11-25T11:38:05.882Z,63.33
2022-11-25T11:39:05.929Z,60.26
2022-11-25T11:40:05.901Z,58.81
2022-11-25T11:41:05.850Z,65.26
2022-11-25T11:42:05.894Z,61.23
2022-11-25T11:43:05.977Z,57.85
2022-11-25T11:44:06.729Z,62.84
2022-11-25T11:45:05.837Z,65.42
2022-11-25T11:46:05.830Z,60.42
2022-11-25T11:47:05.881Z,59.78
2022-11-25T11:48:05.821Z,68.64
2022-11-25T11:49:05.813Z,65.90
2022-11-25T11:50:05.854Z,62.68
2022-11-25T11:51:06.663Z,50.76
2022-11-25T11:52:05.756Z,62.20
2022-11-25T11:53:05.763Z,68.00
2022-11-25T11:54:05.829Z,64.78
2022-11-25T11:55:05.823Z,63.16
2022-11-25T11:56:33.520Z,62.36
2022-11-25T11:57:07.718Z,61.87
2022-11-25T11:58:05.708Z,65.10
2022-11-25T11:59:05.725Z,64.61
2022-11-25T12:00:05.762Z,61.71
2022-11-25T12:01:05.782Z,57.69
2022-11-25T12:02:05.798Z,60.75
2022-11-25T12:03:05.778Z,60.75
2022-11-25T12:04:05.789Z,50.43
2022-11-25T12:05:05.744Z,49.63
2022-11-25T12:06:05.695Z,66.06
2022-11-25T12:07:05.828Z,57.52
2022-11-25T12:08:05.655Z,52.21
2022-11-25T12:09:05.641Z,47.70
2022-11-25T12:10:05.626Z,55.27
2022-11-25T12:11:05.662Z,59.46
2022-11-25T12:12:05.618Z,70.74
2022-11-25T12:13:05.591Z,55.91
2022-11-25T12:14:05.593Z,60.42
2022-11-25T12:15:05.589Z,64.78
2022-11-25T12:16:05.654Z,64.94
2022-11-25T12:17:05.687Z,52.85
2022-11-25T12:18:05.614Z,55.91
2022-11-25T12:19:05.626Z,57.69
2022-11-25T12:20:05.525Z,66.39
2022-11-25T12:21:05.564Z,60.26
2022-11-25T12:22:05.685Z,69.77
2022-11-25T12:23:05.513Z,59.94
2022-11-25T12:24:05.552Z,54.79
2022-11-25T12:25:05.515Z,56.24
2022-11-25T12:26:05.502Z,68.48
2022-11-25T12:27:05.547Z,68.96
2022-11-25T12:28:05.501Z,59.94
2022-11-25T12:29:05.472Z,53.66
2022-11-25T12:30:05.467Z,59.62
2022-11-25T12:31:05.640Z,60.26
2022-11-25T12:32:06.532Z,58.33
2022-11-25T12:33:05.434Z,55.27
2022-11-25T12:34:05.483Z,67.19
2022-11-25T12:35:05.554Z,64.61
2022-11-25T12:36:05.430Z,49.95
2022-11-25T12:37:07.470Z,53.01
2022-11-25T12:38:06.401Z,69.45
2022-11-25T12:39:05.446Z,65.10
2022-11-25T12:40:08.172Z,65.90
2022-11-25T12:41:05.553Z,60.10
2022-11-25T12:42:06.047Z,60.91
2022-11-25T12:43:05.371Z,61.55
2022-11-25T12:44:05.378Z,65.74
2022-11-25T12:45:05.640Z,70.42
2022-11-25T12:46:05.388Z,65.42
2022-11-25T12:47:05.346Z,65.58
2022-11-25T12:48:05.543Z,63.97
2022-11-25T12:49:05.378Z,64.29
2022-11-25T12:50:05.332Z,58.17
2022-11-25T12:51:05.349Z,63.97
2022-11-25T12:52:05.291Z,67.35
2022-11-25T12:53:05.309Z,57.52
2022-11-25T12:54:05.327Z,67.35
2022-11-25T12:55:05.299Z,56.72
2022-11-25T12:56:05.268Z,57.36
2022-11-25T12:57:06.273Z,53.50
2022-11-25T12:58:05.249Z,69.29
2022-11-25T12:59:05.380Z,65.90
2022-11-25T13:00:39.156Z,62.52
2022-11-25T13:01:07.407Z,63.00
2022-11-25T13:02:05.391Z,66.06
2022-11-25T13:03:08.104Z,67.51
2022-11-25T13:04:07.234Z,64.61
2022-11-25T13:05:33.011Z,61.55
2022-11-25T13:06:07.204Z,51.24
2022-11-25T13:07:05.202Z,61.23
2022-11-25T13:08:06.164Z,62.52
2022-11-25T13:09:06.298Z,58.17
2022-11-25T13:10:05.176Z,66.71
2022-11-25T13:11:05.391Z,63.49
2022-11-25T13:12:05.519Z,61.71
2022-11-25T13:13:05.455Z,63.97
2022-11-25T13:14:05.445Z,63.16
2022-11-25T13:15:05.683Z,66.87
2022-11-25T13:16:05.597Z,68.64